createdAt,value
2019-04-03T00:02:19.968Z,62.58
2019-04-03T00:07:32.168Z,63.68
2019-04-03T00:12:27.955Z,63.27
2019-04-03T00:17:23.963Z,62.90
2019-04-03T00:22:21.500Z,63.90
2019-04-03T00:27:20.696Z,64.42
2019-04-03T00:32:16.828Z,65.11
2019-04-03T00:37:23.297Z,64.44
2019-04-03T00:42:20.395Z,65.45
2019-04-03T00:47:16.125Z,65.55
2019-04-03T00:52:15.126Z,66.29
2019-04-03T00:57:10.924Z,67.22
2019-04-03T01:02:06.655Z,66.51
2019-04-03T01:07:02.394Z,68.18
2019-04-03T01:12:00.137Z,66.26
2019-04-03T01:16:55.824Z,67.47
2019-04-03T01:21:51.755Z,68.39
2019-04-03T01:26:47.598Z,68.64
2019-04-03T01:31:44.919Z,69.14
2019-04-03T01:36:42.107Z,68.92
2019-04-03T01:41:38.075Z,68.71
2019-04-03T01:46:33.886Z,70.11
2019-04-03T01:51:30.684Z,68.44
2019-04-03T01:56:26.449Z,69.32
2019-04-03T02:01:22.267Z,68.96
2019-04-03T02:06:18.072Z,69.19
2019-04-03T02:11:15.112Z,69.21
2019-04-03T02:16:11.129Z,69.55
2019-04-03T02:21:07.078Z,69.11
2019-04-03T02:26:03.117Z,70.50
2019-04-03T02:30:59.024Z,69.90
2019-04-03T02:35:54.957Z,70.15
2019-04-03T02:40:50.754Z,69.50
2019-04-03T02:45:46.689Z,70.24
2019-04-03T02:50:46.538Z,71.29
2019-04-03T02:55:41.963Z,71.58
2019-04-03T03:00:37.902Z,71.73
2019-04-03T03:05:33.750Z,72.91
2019-04-03T03:10:31.736Z,72.76
2019-04-03T03:15:28.914Z,72.79
2019-04-03T03:20:26.941Z,71.97
2019-04-03T03:25:23.818Z,71.06
2019-04-03T03:30:37.302Z,72.29
2019-04-03T03:35:27.233Z,69.31
2019-04-03T03:40:17.213Z,70.00
2019-04-03T03:45:18.326Z,68.67
2019-04-03T03:50:12.793Z,69.37
2019-04-03T03:55:09.645Z,70.95
2019-04-03T04:00:07.077Z,72.27
2019-04-03T04:05:36.139Z,71.71
2019-04-03T04:10:39.040Z,70.58
2019-04-03T04:15:35.507Z,71.54
2019-04-03T04:20:36.610Z,71.80
2019-04-03T04:25:31.105Z,71.06
2019-04-03T04:30:26.985Z,71.66
2019-04-03T04:35:22.826Z,72.18
2019-04-03T04:40:18.765Z,72.29
2019-04-03T04:45:14.572Z,70.31
2019-04-03T04:50:10.723Z,71.53
2019-04-03T04:55:07.216Z,72.26
2019-04-03T05:00:03.757Z,72.96
2019-04-03T05:04:59.657Z,71.80
2019-04-03T05:09:55.521Z,71.74
2019-04-03T05:14:51.552Z,74.26
2019-04-03T05:19:48.991Z,71.07
2019-04-03T05:24:44.856Z,71.65
2019-04-03T05:29:40.749Z,71.31
2019-04-03T05:34:36.534Z,70.26
2019-04-03T05:39:32.440Z,71.67
2019-04-03T05:44:28.718Z,70.66
2019-04-03T05:49:24.589Z,69.97
2019-04-03T05:54:20.532Z,70.91
2019-04-03T05:59:16.376Z,72.02
2019-04-03T06:04:12.186Z,72.86
2019-04-03T06:09:08.877Z,72.21
2019-04-03T06:14:04.999Z,72.07
2019-04-03T06:19:01.014Z,71.88
2019-04-03T06:23:57.231Z,73.29
2019-04-03T06:28:54.383Z,70.07
2019-04-03T06:33:51.574Z,70.43
2019-04-03T06:38:50.945Z,69.39
2019-04-03T06:43:49.127Z,70.04
2019-04-03T06:48:44.919Z,70.98
2019-04-03T06:53:40.894Z,70.60
2019-04-03T06:58:39.608Z,71.64
2019-04-03T07:03:34.994Z,73.94
2019-04-03T07:08:39.880Z,68.68
2019-04-03T07:13:34.514Z,67.13
2019-04-03T07:18:30.542Z,65.75
2019-04-03T07:23:28.972Z,65.64
2019-04-03T07:28:26.566Z,63.95
2019-04-03T07:33:22.327Z,63.93
2019-04-03T07:38:18.196Z,63.15
2019-04-03T07:43:14.050Z,62.92
2019-04-03T07:48:15.031Z,62.55
2019-04-03T07:53:10.946Z,60.13
2019-04-03T07:58:07.295Z,56.82
2019-04-03T08:03:04.249Z,54.61
2019-04-03T08:08:01.654Z,54.78
2019-04-03T08:12:59.591Z,53.71
2019-04-03T08:17:57.597Z,55.75
2019-04-03T08:22:54.487Z,53.08
2019-04-03T08:27:51.042Z,53.14
2019-04-03T08:32:48.961Z,51.07
2019-04-03T08:37:45.654Z,51.18
2019-04-03T08:42:45.405Z,50.86
2019-04-03T08:47:44.660Z,49.38
2019-04-03T08:52:39.639Z,50.34
2019-04-03T08:57:36.758Z,50.62
2019-04-03T09:02:33.324Z,49.95
2019-04-03T09:07:32.893Z,48.87
2019-04-03T09:12:32.415Z,54.11
2019-04-03T09:17:28.691Z,48.03
2019-04-03T09:22:24.648Z,48.56
2019-04-03T09:27:20.766Z,46.53
2019-04-03T09:32:17.335Z,47.09
2019-04-03T09:37:13.677Z,45.84
2019-04-03T09:42:09.630Z,48.25
2019-04-03T09:47:05.646Z,46.71
2019-04-03T09:52:01.724Z,47.60
2019-04-03T09:57:03.539Z,48.08
2019-04-03T10:01:55.461Z,48.21
2019-04-03T10:06:51.903Z,47.50
2019-04-03T10:11:51.497Z,51.11
2019-04-03T10:16:47.702Z,50.48
2019-04-03T10:21:43.592Z,48.88
2019-04-03T10:26:40.850Z,48.75
2019-04-03T10:31:37.344Z,48.80
2019-04-03T10:36:33.188Z,47.52
2019-04-03T10:41:29.647Z,48.71
2019-04-03T10:46:25.693Z,49.39
2019-04-03T10:51:21.951Z,47.30
2019-04-03T10:56:17.833Z,50.92
2019-04-03T11:01:14.933Z,49.18
2019-04-03T11:06:10.993Z,45.72
2019-04-03T11:11:07.246Z,45.98
2019-04-03T11:16:03.221Z,46.39
2019-04-03T11:20:59.107Z,48.36
2019-04-03T11:25:55.057Z,47.28
2019-04-03T11:30:52.871Z,46.31
2019-04-03T11:35:48.927Z,44.23
2019-04-03T11:40:45.386Z,48.50
2019-04-03T11:45:45.257Z,44.45
2019-04-03T11:50:41.214Z,43.73
2019-04-03T11:55:37.158Z,46.96
2019-04-03T12:00:40.079Z,44.35
2019-04-03T12:05:36.088Z,45.42
2019-04-03T12:10:32.798Z,47.30
2019-04-03T12:15:29.613Z,44.05
2019-04-03T12:20:25.461Z,42.72
2019-04-03T12:25:21.603Z,46.01
2019-04-03T12:30:18.985Z,45.61
2019-04-03T12:35:36.288Z,43.25
2019-04-03T12:41:32.003Z,46.59
2019-04-03T12:47:33.597Z,44.10
2019-04-03T12:52:36.570Z,43.10
2019-04-03T13:20:44.560Z,41.23
2019-04-03T13:25:40.916Z,41.04
2019-04-03T13:30:37.073Z,44.13
2019-04-03T13:35:33.127Z,41.03
2019-04-03T13:40:29.258Z,40.49
2019-04-03T13:45:25.139Z,40.98
2019-04-03T13:50:22.930Z,41.71
2019-04-03T13:55:18.858Z,41.78
2019-04-03T14:00:21.174Z,39.63
2019-04-03T14:05:14.490Z,41.43
2019-04-03T14:10:11.022Z,41.38
2019-04-03T14:15:08.526Z,40.45
2019-04-03T14:20:04.986Z,40.13
2019-04-03T14:25:12.673Z,41.23
2019-04-03T14:30:02.087Z,39.07
2019-04-03T14:35:06.324Z,40.77
2019-04-03T14:39:55.701Z,42.60
2019-04-03T14:44:52.233Z,40.41
2019-04-03T14:49:48.585Z,40.47
2019-04-03T14:54:44.812Z,43.74
2019-04-03T14:59:41.171Z,40.00
2019-04-03T15:04:37.655Z,40.12
2019-04-03T15:09:34.049Z,44.38
2019-04-03T15:14:30.230Z,43.56
2019-04-03T15:19:26.079Z,41.65
2019-04-03T15:24:21.930Z,44.11
2019-04-03T15:29:25.031Z,46.31
2019-04-03T15:34:20.914Z,48.01
2019-04-03T15:39:19.552Z,50.27
2019-04-03T15:44:15.488Z,51.35
2019-04-03T15:49:12.053Z,52.24
2019-04-03T15:54:08.167Z,53.75
2019-04-03T15:59:06.304Z,54.98
2019-04-03T16:04:04.648Z,55.65
2019-04-03T16:09:05.089Z,55.62
2019-04-03T16:14:01.470Z,54.28
2019-04-03T16:18:59.477Z,54.74
2019-04-03T16:23:56.117Z,55.17
2019-04-03T16:28:52.684Z,55.35
2019-04-03T16:33:48.923Z,54.60
2019-04-03T16:38:55.155Z,55.36
2019-04-03T16:44:10.268Z,55.47
2019-04-03T16:49:32.550Z,55.97
2019-04-03T16:54:29.638Z,56.92
2019-04-03T16:59:26.140Z,57.92
2019-04-03T17:04:27.924Z,57.04
2019-04-03T17:09:25.577Z,55.88
2019-04-03T17:14:24.427Z,55.39
2019-04-03T17:19:20.015Z,55.18
2019-04-03T17:24:17.806Z,55.83
2019-04-03T17:29:19.592Z,56.64
2019-04-03T17:34:19.892Z,56.04
2019-04-03T17:39:16.091Z,54.74
2019-04-03T17:44:24.211Z,56.83
2019-04-03T17:49:20.462Z,56.45
2019-04-03T17:54:24.389Z,58.42
2019-04-03T17:59:22.762Z,57.07
2019-04-03T18:04:20.246Z,57.11
2019-04-03T18:09:16.954Z,57.36
2019-04-03T18:14:13.502Z,58.43
2019-04-03T18:19:11.384Z,58.52
2019-04-03T18:24:08.048Z,58.53
2019-04-03T18:29:18.821Z,57.62
2019-04-03T18:34:15.138Z,57.50
2019-04-03T18:39:13.064Z,58.07
2019-04-03T18:44:21.308Z,58.70
2019-04-03T18:49:07.165Z,58.62
2019-04-03T18:54:03.306Z,60.63
2019-04-03T18:59:06.935Z,59.68
2019-04-03T19:04:05.147Z,59.97
2019-04-03T19:09:09.964Z,60.51
2019-04-03T19:14:02.060Z,59.75
2019-04-03T19:19:07.832Z,60.20
2019-04-03T19:24:11.244Z,59.71
2019-04-03T19:29:37.782Z,61.33
2019-04-03T19:34:58.653Z,60.60
2019-04-03T19:40:21.114Z,61.34
2019-04-03T19:45:20.621Z,61.09
2019-04-03T19:50:16.373Z,61.48
2019-04-03T19:55:12.690Z,61.89
2019-04-03T20:00:10.664Z,61.11
2019-04-03T20:05:07.149Z,62.16
2019-04-03T20:10:03.763Z,62.73
2019-04-03T20:15:02.398Z,62.39
2019-04-03T20:19:58.825Z,62.63
2019-04-03T20:25:00.057Z,61.45
2019-04-03T20:29:52.861Z,63.19
2019-04-03T20:34:50.105Z,63.22
2019-04-03T20:39:49.974Z,63.48
2019-04-03T20:44:48.595Z,63.77
2019-04-03T20:49:44.554Z,64.13
2019-04-03T20:54:40.666Z,64.04
2019-04-03T20:59:38.807Z,64.62
2019-04-03T21:05:07.718Z,65.48
2019-04-03T21:10:00.953Z,65.56
2019-04-03T21:15:07.678Z,64.44
2019-04-03T21:20:01.599Z,64.52
2019-04-03T22:17:38.912Z,67.40
2019-04-03T22:22:45.450Z,68.05
2019-04-03T22:27:42.894Z,67.66
2019-04-03T22:32:42.574Z,68.12
2019-04-03T22:37:42.752Z,68.68
2019-04-03T22:42:40.793Z,68.34
2019-04-03T22:47:36.819Z,68.47
2019-04-03T22:52:32.911Z,69.69
2019-04-03T22:57:28.832Z,69.61
2019-04-03T23:02:24.664Z,70.17
2019-04-03T23:07:23.680Z,70.05
2019-04-03T23:12:34.677Z,69.70
2019-04-03T23:17:30.732Z,70.30
2019-04-03T23:22:26.811Z,71.10
2019-04-03T23:27:22.804Z,69.17
2019-04-03T23:32:18.859Z,68.14
2019-04-03T23:37:14.836Z,71.08
2019-04-03T23:42:10.889Z,70.83
2019-04-03T23:47:06.837Z,69.80
2019-04-03T23:52:04.204Z,71.32
2019-04-03T23:57:01.097Z,71.08
